Pumpkin Bend, Arkansas
Current Conditions -  °F | °C
As of 10:56 PM on Monday 20 Oct 2014 (Local Time) from KM19 Reporting Station
Clear Clear  
Wind Chill: 60°   Ceiling: Unl
Heat Index: 60°   Visibility: 10mi
Dew Point: 56°   Wind: 6mph
Humidity: 87%   Direction: 250°WSW
Pressure: 30.05"   Gusts: NA
Location:  35.2139°N, 91.1509°W
Report Text: KM19 210356Z AUTO 25005KT 10SM CLR 16/13 A3005 RMK AO2 T01550133 SLP173
Loading
Personal Weather Stations






























Interactive Weather Map
Tropical Storm Tracking
New forecast layout! Learn more

10-Day Weather Forecast

Advertisements
Track Severe Weather on mobile